sensor_id;sensor_type;location;lat;lon;timestamp;P1;durP1;ratioP1;P2;durP2;ratioP2
71558;SDS011;59382;43.852;25.952;2023-04-12T00:00:58;8.73;;;6.35;;
71558;SDS011;59382;43.852;25.952;2023-04-12T00:03:24;8.68;;;6.70;;
71558;SDS011;59382;43.852;25.952;2023-04-12T00:05:50;7.05;;;6.13;;
71558;SDS011;59382;43.852;25.952;2023-04-12T00:08:19;9.43;;;6.97;;
71558;SDS011;59382;43.852;25.952;2023-04-12T00:10:50;9.50;;;6.70;;
71558;SDS011;59382;43.852;25.952;2023-04-12T00:13:16;8.35;;;6.50;;
71558;SDS011;59382;43.852;25.952;2023-04-12T00:15:43;8.32;;;6.85;;
71558;SDS011;59382;43.852;25.952;2023-04-12T00:18:09;8.50;;;6.50;;
71558;SDS011;59382;43.852;25.952;2023-04-12T00:20:35;11.77;;;6.50;;
71558;SDS011;59382;43.852;25.952;2023-04-12T00:23:00;11.13;;;6.80;;
71558;SDS011;59382;43.852;25.952;2023-04-12T00:25:26;8.30;;;7.00;;
71558;SDS011;59382;43.852;25.952;2023-04-12T00:27:51;8.60;;;6.38;;
71558;SDS011;59382;43.852;25.952;2023-04-12T00:30:17;14.50;;;6.82;;
71558;SDS011;59382;43.852;25.952;2023-04-12T00:32:43;8.52;;;6.40;;
71558;SDS011;59382;43.852;25.952;2023-04-12T00:35:08;9.38;;;6.70;;
71558;SDS011;59382;43.852;25.952;2023-04-12T00:37:33;8.77;;;5.97;;
71558;SDS011;59382;43.852;25.952;2023-04-12T00:40:01;6.70;;;6.00;;
71558;SDS011;59382;43.852;25.952;2023-04-12T00:42:27;9.45;;;6.63;;
71558;SDS011;59382;43.852;25.952;2023-04-12T00:44:52;11.85;;;7.80;;
71558;SDS011;59382;43.852;25.952;2023-04-12T00:47:18;14.95;;;8.38;;
71558;SDS011;59382;43.852;25.952;2023-04-12T00:49:43;14.05;;;9.10;;
71558;SDS011;59382;43.852;25.952;2023-04-12T00:52:10;14.35;;;7.88;;
71558;SDS011;59382;43.852;25.952;2023-04-12T00:54:39;13.45;;;7.78;;
71558;SDS011;59382;43.852;25.952;2023-04-12T00:57:07;11.13;;;6.78;;
71558;SDS011;59382;43.852;25.952;2023-04-12T00:59:34;14.98;;;7.00;;
71558;SDS011;59382;43.852;25.952;2023-04-12T01:01:59;12.80;;;7.35;;
71558;SDS011;59382;43.852;25.952;2023-04-12T01:04:25;9.45;;;6.72;;
71558;SDS011;59382;43.852;25.952;2023-04-12T01:09:46;8.25;;;6.22;;
71558;SDS011;59382;43.852;25.952;2023-04-12T01:17:27;9.65;;;6.63;;
71558;SDS011;59382;43.852;25.952;2023-04-12T01:20:18;6.50;;;5.45;;
71558;SDS011;59382;43.852;25.952;2023-04-12T01:28:16;8.00;;;4.80;;
71558;SDS011;59382;43.852;25.952;2023-04-12T01:30:47;8.43;;;5.60;;
71558;SDS011;59382;43.852;25.952;2023-04-12T01:33:15;6.60;;;5.15;;
71558;SDS011;59382;43.852;25.952;2023-04-12T01:35:42;7.53;;;5.47;;
71558;SDS011;59382;43.852;25.952;2023-04-12T01:38:08;7.75;;;4.90;;
71558;SDS011;59382;43.852;25.952;2023-04-12T01:40:35;5.50;;;4.57;;
71558;SDS011;59382;43.852;25.952;2023-04-12T01:45:36;7.68;;;4.25;;
71558;SDS011;59382;43.852;25.952;2023-04-12T01:48:09;5.45;;;4.53;;
71558;SDS011;59382;43.852;25.952;2023-04-12T01:53:21;4.28;;;3.38;;
71558;SDS011;59382;43.852;25.952;2023-04-12T01:55:52;6.45;;;4.13;;
71558;SDS011;59382;43.852;25.952;2023-04-12T01:58:23;5.55;;;3.50;;
71558;SDS011;59382;43.852;25.952;2023-04-12T02:00:49;5.55;;;4.03;;
71558;SDS011;59382;43.852;25.952;2023-04-12T02:03:18;5.88;;;3.40;;
71558;SDS011;59382;43.852;25.952;2023-04-12T02:05:44;3.58;;;3.22;;
71558;SDS011;59382;43.852;25.952;2023-04-12T02:08:10;6.25;;;4.05;;
71558;SDS011;59382;43.852;25.952;2023-04-12T02:10:36;4.70;;;3.25;;
71558;SDS011;59382;43.852;25.952;2023-04-12T02:13:04;5.75;;;3.83;;
71558;SDS011;59382;43.852;25.952;2023-04-12T02:15:29;7.10;;;4.25;;
71558;SDS011;59382;43.852;25.952;2023-04-12T02:17:55;6.90;;;4.10;;
71558;SDS011;59382;43.852;25.952;2023-04-12T02:20:23;4.90;;;4.40;;
71558;SDS011;59382;43.852;25.952;2023-04-12T02:22:49;5.80;;;4.63;;
71558;SDS011;59382;43.852;25.952;2023-04-12T02:25:15;4.70;;;4.13;;
71558;SDS011;59382;43.852;25.952;2023-04-12T02:27:44;5.97;;;4.63;;
71558;SDS011;59382;43.852;25.952;2023-04-12T02:30:11;7.75;;;4.57;;
71558;SDS011;59382;43.852;25.952;2023-04-12T02:32:37;4.65;;;3.63;;
71558;SDS011;59382;43.852;25.952;2023-04-12T02:35:13;6.22;;;4.38;;
71558;SDS011;59382;43.852;25.952;2023-04-12T02:37:42;8.45;;;5.28;;
71558;SDS011;59382;43.852;25.952;2023-04-12T02:40:11;6.97;;;5.05;;
71558;SDS011;59382;43.852;25.952;2023-04-12T02:42:37;6.50;;;4.63;;
71558;SDS011;59382;43.852;25.952;2023-04-12T02:45:03;5.97;;;4.85;;
71558;SDS011;59382;43.852;25.952;2023-04-12T02:47:28;9.98;;;4.78;;
71558;SDS011;59382;43.852;25.952;2023-04-12T02:49:54;5.20;;;4.43;;
71558;SDS011;59382;43.852;25.952;2023-04-12T02:52:20;9.52;;;5.07;;
71558;SDS011;59382;43.852;25.952;2023-04-12T02:54:47;7.18;;;5.10;;
71558;SDS011;59382;43.852;25.952;2023-04-12T02:57:14;8.75;;;5.90;;
71558;SDS011;59382;43.852;25.952;2023-04-12T02:59:40;9.43;;;5.85;;
71558;SDS011;59382;43.852;25.952;2023-04-12T03:02:05;8.05;;;5.53;;
71558;SDS011;59382;43.852;25.952;2023-04-12T03:04:32;9.15;;;6.35;;
71558;SDS011;59382;43.852;25.952;2023-04-12T03:06:59;6.25;;;5.45;;
71558;SDS011;59382;43.852;25.952;2023-04-12T03:09:24;8.00;;;5.65;;
71558;SDS011;59382;43.852;25.952;2023-04-12T03:11:50;7.90;;;6.07;;
71558;SDS011;59382;43.852;25.952;2023-04-12T03:14:15;8.05;;;5.70;;
71558;SDS011;59382;43.852;25.952;2023-04-12T03:16:41;8.25;;;5.80;;
71558;SDS011;59382;43.852;25.952;2023-04-12T03:19:07;12.70;;;6.03;;
71558;SDS011;59382;43.852;25.952;2023-04-12T03:21:33;8.10;;;5.82;;
71558;SDS011;59382;43.852;25.952;2023-04-12T03:23:58;8.23;;;6.22;;
71558;SDS011;59382;43.852;25.952;2023-04-12T03:26:24;7.10;;;5.78;;
71558;SDS011;59382;43.852;25.952;2023-04-12T03:28:58;9.05;;;6.18;;
71558;SDS011;59382;43.852;25.952;2023-04-12T03:31:25;7.70;;;5.68;;
71558;SDS011;59382;43.852;25.952;2023-04-12T03:33:51;8.80;;;6.07;;
71558;SDS011;59382;43.852;25.952;2023-04-12T03:36:17;7.95;;;6.03;;
71558;SDS011;59382;43.852;25.952;2023-04-12T03:38:43;10.45;;;6.28;;
71558;SDS011;59382;43.852;25.952;2023-04-12T03:41:09;8.45;;;5.68;;
71558;SDS011;59382;43.852;25.952;2023-04-12T03:43:34;9.95;;;6.22;;
71558;SDS011;59382;43.852;25.952;2023-04-12T03:46:04;11.80;;;6.55;;
71558;SDS011;59382;43.852;25.952;2023-04-12T03:48:30;8.60;;;6.18;;
71558;SDS011;59382;43.852;25.952;2023-04-12T03:50:56;9.50;;;5.90;;
71558;SDS011;59382;43.852;25.952;2023-04-12T03:53:24;9.10;;;6.45;;
71558;SDS011;59382;43.852;25.952;2023-04-12T03:55:51;8.32;;;6.20;;
71558;SDS011;59382;43.852;25.952;2023-04-12T03:58:16;10.18;;;5.93;;
71558;SDS011;59382;43.852;25.952;2023-04-12T04:00:43;11.77;;;6.95;;
71558;SDS011;59382;43.852;25.952;2023-04-12T04:03:09;12.63;;;7.57;;
71558;SDS011;59382;43.852;25.952;2023-04-12T04:05:35;9.50;;;7.00;;
71558;SDS011;59382;43.852;25.952;2023-04-12T04:08:01;12.73;;;7.30;;
71558;SDS011;59382;43.852;25.952;2023-04-12T04:10:26;13.07;;;7.03;;
71558;SDS011;59382;43.852;25.952;2023-04-12T04:12:53;11.23;;;7.25;;
71558;SDS011;59382;43.852;25.952;2023-04-12T04:15:18;13.38;;;7.55;;
71558;SDS011;59382;43.852;25.952;2023-04-12T04:17:44;10.50;;;6.45;;
71558;SDS011;59382;43.852;25.952;2023-04-12T04:20:12;10.88;;;6.07;;
71558;SDS011;59382;43.852;25.952;2023-04-12T04:22:38;8.02;;;6.22;;
71558;SDS011;59382;43.852;25.952;2023-04-12T04:25:04;8.60;;;6.55;;
71558;SDS011;59382;43.852;25.952;2023-04-12T04:27:30;8.98;;;6.90;;
71558;SDS011;59382;43.852;25.952;2023-04-12T04:29:58;12.10;;;6.78;;
71558;SDS011;59382;43.852;25.952;2023-04-12T04:32:26;14.73;;;6.75;;
71558;SDS011;59382;43.852;25.952;2023-04-12T04:34:54;8.18;;;6.32;;
71558;SDS011;59382;43.852;25.952;2023-04-12T04:37:20;9.88;;;6.40;;
71558;SDS011;59382;43.852;25.952;2023-04-12T04:39:46;10.27;;;6.85;;
71558;SDS011;59382;43.852;25.952;2023-04-12T04:42:11;9.27;;;6.28;;
71558;SDS011;59382;43.852;25.952;2023-04-12T04:44:37;9.43;;;6.22;;
71558;SDS011;59382;43.852;25.952;2023-04-12T04:47:03;8.52;;;6.78;;
71558;SDS011;59382;43.852;25.952;2023-04-12T04:49:29;10.98;;;6.82;;
71558;SDS011;59382;43.852;25.952;2023-04-12T04:51:54;10.32;;;5.82;;
71558;SDS011;59382;43.852;25.952;2023-04-12T04:54:20;11.80;;;6.35;;
71558;SDS011;59382;43.852;25.952;2023-04-12T04:56:46;9.57;;;6.38;;
71558;SDS011;59382;43.852;25.952;2023-04-12T04:59:11;10.75;;;7.78;;
71558;SDS011;59382;43.852;25.952;2023-04-12T05:01:37;9.52;;;6.20;;
71558;SDS011;59382;43.852;25.952;2023-04-12T05:04:03;9.38;;;6.32;;
71558;SDS011;59382;43.852;25.952;2023-04-12T05:06:28;11.45;;;7.38;;
71558;SDS011;59382;43.852;25.952;2023-04-12T05:08:55;11.82;;;8.00;;
71558;SDS011;59382;43.852;25.952;2023-04-12T05:11:20;12.48;;;6.72;;
71558;SDS011;59382;43.852;25.952;2023-04-12T05:13:46;11.43;;;6.97;;
71558;SDS011;59382;43.852;25.952;2023-04-12T05:16:11;9.48;;;5.95;;
71558;SDS011;59382;43.852;25.952;2023-04-12T05:18:37;11.35;;;6.18;;
71558;SDS011;59382;43.852;25.952;2023-04-12T05:21:03;12.55;;;7.03;;
71558;SDS011;59382;43.852;25.952;2023-04-12T05:23:31;10.13;;;7.13;;
71558;SDS011;59382;43.852;25.952;2023-04-12T05:26:00;7.90;;;5.93;;
71558;SDS011;59382;43.852;25.952;2023-04-12T05:28:25;11.55;;;6.55;;
71558;SDS011;59382;43.852;25.952;2023-04-12T05:30:51;8.75;;;6.35;;
71558;SDS011;59382;43.852;25.952;2023-04-12T05:33:16;8.15;;;6.50;;
71558;SDS011;59382;43.852;25.952;2023-04-12T05:35:41;7.63;;;5.85;;
71558;SDS011;59382;43.852;25.952;2023-04-12T05:38:07;8.90;;;6.43;;
71558;SDS011;59382;43.852;25.952;2023-04-12T05:40:33;12.32;;;6.95;;
71558;SDS011;59382;43.852;25.952;2023-04-12T05:43:00;10.60;;;6.30;;
71558;SDS011;59382;43.852;25.952;2023-04-12T05:45:26;11.35;;;6.32;;
71558;SDS011;59382;43.852;25.952;2023-04-12T05:47:52;10.63;;;6.47;;
71558;SDS011;59382;43.852;25.952;2023-04-12T05:50:19;9.68;;;6.88;;
71558;SDS011;59382;43.852;25.952;2023-04-12T05:52:45;11.45;;;6.57;;
71558;SDS011;59382;43.852;25.952;2023-04-12T05:55:12;9.10;;;6.22;;
71558;SDS011;59382;43.852;25.952;2023-04-12T05:57:39;8.50;;;5.78;;
71558;SDS011;59382;43.852;25.952;2023-04-12T06:00:05;10.88;;;6.50;;
71558;SDS011;59382;43.852;25.952;2023-04-12T06:02:43;8.25;;;6.00;;
71558;SDS011;59382;43.852;25.952;2023-04-12T06:05:09;10.93;;;7.07;;
